East Chevington, United Kingdom
Current Conditions -  °F | °C
As of 12:50 PM on Saturday 25 Oct 2014 (Local Time) from EGQM Reporting Station
Scattered Clouds Scattered Clouds  
Wind Chill: 57°   Ceiling: Unl
Heat Index: 57°   Visibility: 6mi
Dew Point: 46°   Wind: 20mph
Humidity: 67%   Direction: 220°SW
Pressure: 29.74"   Gusts: 31mph
Location:  55.28°N, 1.58°W
Report Text: EGQM 251150Z AUTO 22017G27KT 9999 FEW031/// SCT044/// 14/08 Q1007
Loading
Personal Weather Stations






























Interactive Weather Map
Tropical Storm Tracking
New forecast layout! Learn more

10-Day Weather Forecast

Advertisements
Track Severe Weather on mobile